createdAt,value
2018-07-16T00:00:56.188Z,68.44
2018-07-16T00:03:23.406Z,68.66
2018-07-16T00:05:50.654Z,68.90
2018-07-16T00:08:18.012Z,69.14
2018-07-16T00:10:45.306Z,69.53
2018-07-16T00:13:12.506Z,70.75
2018-07-16T00:15:48.097Z,71.82
2018-07-16T00:18:16.816Z,73.54
2018-07-16T00:20:44.092Z,74.19
2018-07-16T00:23:11.372Z,74.69
2018-07-16T00:25:38.563Z,75.68
2018-07-16T00:28:05.814Z,76.34
2018-07-16T00:30:33.069Z,77.73
2018-07-16T00:33:00.325Z,77.88
2018-07-16T00:35:27.551Z,78.66
2018-07-16T00:37:54.876Z,77.81
2018-07-16T00:40:22.269Z,77.58
2018-07-16T00:42:49.587Z,77.93
2018-07-16T00:45:16.956Z,76.50
2018-07-16T00:47:44.158Z,77.99
2018-07-16T00:50:11.336Z,79.29
2018-07-16T00:52:38.725Z,78.81
2018-07-16T00:55:06.292Z,79.49
2018-07-16T00:57:36.674Z,80.27
2018-07-16T01:00:04.238Z,80.89
2018-07-16T01:02:31.425Z,80.66
2018-07-16T01:04:58.680Z,79.91
2018-07-16T01:07:25.955Z,79.67
2018-07-16T01:09:53.255Z,79.38
2018-07-16T01:12:20.538Z,79.71
2018-07-16T01:14:49.554Z,79.65
2018-07-16T01:17:16.864Z,80.19
2018-07-16T01:19:44.120Z,79.57
2018-07-16T01:22:11.398Z,80.39
2018-07-16T01:24:38.738Z,79.98
2018-07-16T01:27:06.095Z,80.23
2018-07-16T01:29:33.362Z,80.20
2018-07-16T01:32:00.619Z,79.37
2018-07-16T01:34:27.846Z,79.52
2018-07-16T01:36:55.122Z,80.98
2018-07-16T01:39:22.997Z,81.75
2018-07-16T01:41:50.720Z,81.16
2018-07-16T01:44:19.690Z,81.57
2018-07-16T01:46:47.850Z,79.67
2018-07-16T01:49:16.928Z,80.83
2018-07-16T01:51:44.407Z,79.97
2018-07-16T01:54:14.878Z,80.22
2018-07-16T01:56:43.943Z,80.13
2018-07-16T01:59:11.454Z,79.37
2018-07-16T02:01:38.729Z,79.76
2018-07-16T02:04:06.016Z,80.82
2018-07-16T02:06:33.396Z,81.50
2018-07-16T02:09:00.613Z,82.36
2018-07-16T02:11:28.239Z,82.90
2018-07-16T02:13:55.550Z,82.04
2018-07-16T02:16:22.798Z,82.49
2018-07-16T02:18:50.032Z,81.57
2018-07-16T02:21:17.231Z,82.69
2018-07-16T02:23:44.493Z,82.28
2018-07-16T02:26:11.862Z,83.21
2018-07-16T02:28:39.086Z,82.46
2018-07-16T02:31:06.328Z,83.15
2018-07-16T02:33:33.569Z,84.53
2018-07-16T02:36:08.919Z,84.58
2018-07-16T02:38:36.406Z,83.23
2018-07-16T02:41:03.978Z,83.35
2018-07-16T02:43:36.016Z,82.34
2018-07-16T02:46:08.944Z,84.09
2018-07-16T02:48:37.368Z,82.68
2018-07-16T02:51:12.364Z,81.92
2018-07-16T02:53:41.378Z,83.03
2018-07-16T02:56:08.948Z,82.71
2018-07-16T02:58:38.610Z,82.89
2018-07-16T03:01:05.930Z,82.63
2018-07-16T03:03:33.064Z,83.42
2018-07-16T03:06:00.252Z,83.54
2018-07-16T03:08:27.549Z,84.49
2018-07-16T03:10:54.903Z,85.35
2018-07-16T03:13:22.231Z,84.65
2018-07-16T03:15:49.503Z,83.99
2018-07-16T03:18:19.707Z,84.95
2018-07-16T03:20:47.142Z,85.12
2018-07-16T03:23:14.514Z,85.62
2018-07-16T03:25:41.670Z,85.36
2018-07-16T03:28:08.857Z,84.52
2018-07-16T03:30:36.123Z,85.29
2018-07-16T03:33:03.405Z,85.94
2018-07-16T03:35:30.828Z,85.39
2018-07-16T03:37:58.046Z,85.43
2018-07-16T03:40:25.438Z,84.96
2018-07-16T03:42:52.756Z,84.20
2018-07-16T03:45:20.169Z,84.98
2018-07-16T03:47:47.622Z,84.32
2018-07-16T03:50:14.892Z,84.23
2018-07-16T03:52:42.096Z,84.44
2018-07-16T03:55:09.351Z,84.59
2018-07-16T03:57:36.652Z,85.24
2018-07-16T04:00:03.857Z,85.83
2018-07-16T04:02:31.053Z,85.37
2018-07-16T04:04:58.300Z,84.60
2018-07-16T04:07:25.582Z,86.97
2018-07-16T04:09:52.792Z,87.11
2018-07-16T04:12:20.073Z,85.55
2018-07-16T04:14:49.169Z,85.12
2018-07-16T04:17:16.424Z,85.52
2018-07-16T04:19:43.632Z,85.23
2018-07-16T04:22:10.857Z,86.38
2018-07-16T04:24:38.485Z,87.12
2018-07-16T04:27:05.785Z,87.63
2018-07-16T04:29:32.952Z,87.51
2018-07-16T04:32:00.328Z,86.85
2018-07-16T04:34:27.634Z,86.79
2018-07-16T04:36:54.921Z,89.07
2018-07-16T04:39:22.134Z,87.49
2018-07-16T04:41:49.333Z,88.30
2018-07-16T04:44:16.591Z,88.08
2018-07-16T04:46:43.797Z,87.75
2018-07-16T04:49:11.003Z,87.12
2018-07-16T04:51:38.338Z,83.92
2018-07-16T04:54:05.624Z,85.92
2018-07-16T04:56:32.873Z,84.57
2018-07-16T04:59:00.090Z,83.69
2018-07-16T05:01:27.365Z,82.88
2018-07-16T05:03:54.694Z,82.37
2018-07-16T05:06:21.907Z,82.58
2018-07-16T05:08:49.118Z,81.48
2018-07-16T05:11:16.431Z,82.18
2018-07-16T05:13:43.696Z,82.52
2018-07-16T05:16:10.965Z,84.94
2018-07-16T05:18:38.352Z,83.72
2018-07-16T05:21:05.634Z,83.67
2018-07-16T05:23:32.921Z,82.46
2018-07-16T05:26:00.176Z,81.59
2018-07-16T05:28:27.452Z,82.40
2018-07-16T05:30:54.652Z,80.77
2018-07-16T05:33:21.844Z,81.89
2018-07-16T05:35:49.099Z,81.09
2018-07-16T05:38:16.493Z,81.60
2018-07-16T05:40:43.668Z,82.16
2018-07-16T05:43:10.912Z,81.69
2018-07-16T05:45:38.112Z,80.10
2018-07-16T05:48:05.436Z,78.96
2018-07-16T05:50:32.724Z,77.78
2018-07-16T05:53:00.013Z,75.12
2018-07-16T05:55:27.187Z,75.47
2018-07-16T05:57:54.455Z,76.01
2018-07-16T06:00:21.665Z,75.94
2018-07-16T06:02:48.961Z,75.77
2018-07-16T06:05:16.351Z,75.22
2018-07-16T06:07:43.595Z,75.34
2018-07-16T06:10:10.878Z,74.72
2018-07-16T06:12:38.142Z,74.98
2018-07-16T06:17:25.608Z,76.00
2018-07-16T06:19:52.899Z,75.76
2018-07-16T06:22:20.147Z,74.18
2018-07-16T06:24:47.429Z,74.31
2018-07-16T06:27:14.653Z,74.22
2018-07-16T06:29:41.953Z,72.45
2018-07-16T06:32:09.229Z,73.32
2018-07-16T06:34:36.481Z,71.36
2018-07-16T06:37:03.821Z,73.55
2018-07-16T06:39:31.079Z,70.10
2018-07-16T06:41:58.302Z,70.37
2018-07-16T06:44:25.536Z,70.67
2018-07-16T06:46:52.745Z,70.24
2018-07-16T06:49:20.037Z,70.45
2018-07-16T06:53:36.245Z,69.73
2018-07-16T06:56:05.413Z,69.73
2018-07-16T06:58:32.630Z,70.14
2018-07-16T07:00:59.913Z,70.75
2018-07-16T07:03:27.255Z,70.91
2018-07-16T07:05:54.567Z,69.88
2018-07-16T07:08:21.834Z,70.43
2018-07-16T07:10:49.130Z,69.19
2018-07-16T07:13:16.595Z,68.37
2018-07-16T07:15:43.919Z,67.17
2018-07-16T07:18:11.254Z,67.79
2018-07-16T07:20:38.556Z,64.55
2018-07-16T07:23:06.581Z,63.39
2018-07-16T07:25:33.827Z,62.55
2018-07-16T07:28:01.115Z,62.78
2018-07-16T07:30:28.442Z,62.60
2018-07-16T07:32:55.877Z,62.32
2018-07-16T07:35:23.307Z,62.10
2018-07-16T07:37:50.519Z,62.08
2018-07-16T07:40:18.165Z,63.35
2018-07-16T07:42:45.406Z,62.71
2018-07-16T07:45:12.612Z,61.09
2018-07-16T07:47:39.905Z,62.46
2018-07-16T07:50:07.073Z,60.20
2018-07-16T07:52:34.371Z,60.07
2018-07-16T07:55:01.851Z,60.77
2018-07-16T07:57:28.743Z,60.60
2018-07-16T07:59:55.993Z,61.94
2018-07-16T08:02:23.306Z,61.90
2018-07-16T08:04:50.522Z,63.54
2018-07-16T08:07:17.778Z,63.96
2018-07-16T08:09:45.010Z,64.36
2018-07-16T08:12:13.010Z,63.98
2018-07-16T08:14:41.444Z,63.92
2018-07-16T08:17:08.842Z,63.00
2018-07-16T08:19:36.192Z,62.95
2018-07-16T08:22:03.429Z,63.40
2018-07-16T08:24:31.019Z,62.74
2018-07-16T08:26:58.268Z,61.68
2018-07-16T08:29:25.568Z,63.98
2018-07-16T08:31:52.776Z,63.24
2018-07-16T08:34:20.021Z,63.22
2018-07-16T08:36:47.320Z,62.52
2018-07-16T08:39:14.600Z,62.13
2018-07-16T08:41:41.829Z,62.70
2018-07-16T08:44:09.105Z,61.70
2018-07-16T08:46:36.340Z,62.80
2018-07-16T08:49:03.576Z,62.72
2018-07-16T08:51:31.116Z,63.92
2018-07-16T08:53:58.282Z,63.82
2018-07-16T08:56:25.691Z,61.87
2018-07-16T08:58:52.936Z,62.50
2018-07-16T09:01:20.191Z,64.00
2018-07-16T09:03:47.425Z,63.50
2018-07-16T09:06:14.632Z,62.08
2018-07-16T09:08:41.898Z,62.28
2018-07-16T09:11:09.332Z,61.05
2018-07-16T09:13:36.679Z,59.57
2018-07-16T09:16:03.993Z,58.76
2018-07-16T09:18:31.423Z,56.17
2018-07-16T09:20:58.803Z,56.39
2018-07-16T09:23:26.063Z,57.14
2018-07-16T09:25:53.354Z,57.21
2018-07-16T09:28:20.583Z,54.36
2018-07-16T09:30:47.822Z,52.13
2018-07-16T09:33:15.041Z,52.54
2018-07-16T09:35:42.367Z,54.70
2018-07-16T09:38:09.569Z,54.84
2018-07-16T09:40:36.848Z,53.22
2018-07-16T09:43:04.307Z,51.49
2018-07-16T09:45:31.765Z,48.93
2018-07-16T09:47:58.970Z,49.50
2018-07-16T09:50:26.165Z,49.41
2018-07-16T09:52:53.457Z,51.45
2018-07-16T09:55:20.645Z,50.91
2018-07-16T09:57:47.876Z,50.87
2018-07-16T10:00:19.691Z,45.95
2018-07-16T10:02:47.079Z,45.86
2018-07-16T10:05:14.452Z,48.20
2018-07-16T10:07:41.834Z,46.19
2018-07-16T10:10:09.177Z,45.04
2018-07-16T10:12:36.641Z,47.89
2018-07-16T10:15:04.043Z,48.33
2018-07-16T10:17:31.298Z,50.16
2018-07-16T10:19:58.611Z,47.79
2018-07-16T10:22:25.938Z,45.65
2018-07-16T10:24:53.295Z,45.38
2018-07-16T10:27:20.475Z,46.30
2018-07-16T10:29:47.671Z,45.51
2018-07-16T10:32:14.938Z,48.25
2018-07-16T10:34:42.186Z,46.06
2018-07-16T10:37:09.444Z,49.23
2018-07-16T10:39:36.709Z,52.11
2018-07-16T10:42:04.016Z,49.23
2018-07-16T10:44:31.237Z,48.74
2018-07-16T10:46:58.541Z,48.82
2018-07-16T10:49:25.779Z,47.10
2018-07-16T10:51:52.984Z,47.63
2018-07-16T10:54:20.393Z,48.67
2018-07-16T10:56:47.646Z,48.31
2018-07-16T10:59:14.978Z,46.75
2018-07-16T11:01:42.321Z,44.49
2018-07-16T11:04:09.520Z,40.90
2018-07-16T11:06:36.784Z,40.30
2018-07-16T11:09:05.308Z,40.40
2018-07-16T11:11:32.514Z,40.97
2018-07-16T11:13:59.774Z,43.36
2018-07-16T11:16:27.056Z,42.26
2018-07-16T11:18:54.283Z,40.32
2018-07-16T11:21:21.537Z,39.29
2018-07-16T11:23:48.816Z,38.44
2018-07-16T11:26:16.035Z,37.42
2018-07-16T11:28:43.301Z,37.73
2018-07-16T11:31:10.568Z,39.09
2018-07-16T11:33:37.797Z,38.40
2018-07-16T11:36:05.094Z,37.57
2018-07-16T11:38:32.339Z,35.04
2018-07-16T11:40:59.636Z,36.67
2018-07-16T11:43:26.978Z,36.50
2018-07-16T11:45:54.253Z,35.65
2018-07-16T11:48:21.627Z,34.83
2018-07-16T11:50:48.942Z,34.65
2018-07-16T11:53:16.241Z,32.96
2018-07-16T11:55:43.472Z,31.47
2018-07-16T11:58:10.716Z,32.94
2018-07-16T12:00:38.001Z,34.64
2018-07-16T12:03:05.264Z,32.72
2018-07-16T12:05:32.485Z,32.99
2018-07-16T12:07:59.759Z,33.78
2018-07-16T12:10:27.099Z,33.43
2018-07-16T12:12:54.390Z,34.99
2018-07-16T12:15:21.625Z,33.25
2018-07-16T12:17:48.899Z,33.10
2018-07-16T12:20:16.118Z,31.20
2018-07-16T12:22:43.488Z,33.25
2018-07-16T12:25:10.735Z,33.02
2018-07-16T12:27:37.929Z,31.29
2018-07-16T12:30:05.210Z,32.52
2018-07-16T12:32:32.523Z,32.69
2018-07-16T12:34:59.875Z,33.60
2018-07-16T12:37:27.397Z,32.49
2018-07-16T12:39:54.634Z,31.59
2018-07-16T12:42:21.872Z,30.75
2018-07-16T12:44:49.153Z,31.71
2018-07-16T12:47:16.400Z,30.71
2018-07-16T12:49:43.623Z,32.32
2018-07-16T12:52:10.906Z,32.27
2018-07-16T12:54:38.203Z,34.55
2018-07-16T12:57:05.386Z,31.65
2018-07-16T12:59:32.634Z,32.04
2018-07-16T13:01:59.872Z,30.02
2018-07-16T13:04:27.180Z,29.76
2018-07-16T13:06:54.429Z,31.10
2018-07-16T13:09:21.741Z,29.71
2018-07-16T13:11:49.078Z,29.56
2018-07-16T13:14:16.339Z,29.60
2018-07-16T13:16:43.592Z,29.03
2018-07-16T13:19:10.926Z,28.71
2018-07-16T13:21:38.184Z,26.78
2018-07-16T13:24:05.433Z,28.63
2018-07-16T13:26:32.688Z,27.67
2018-07-16T13:28:59.985Z,29.38
2018-07-16T13:31:27.278Z,29.79
2018-07-16T13:33:54.735Z,30.35
2018-07-16T13:36:21.999Z,29.12
2018-07-16T13:38:49.264Z,28.37
2018-07-16T13:41:16.556Z,28.14
2018-07-16T13:43:43.829Z,27.12
2018-07-16T13:46:11.066Z,28.45
2018-07-16T13:48:38.295Z,30.46
2018-07-16T13:51:05.605Z,29.94
2018-07-16T13:53:32.820Z,28.82
2018-07-16T13:56:00.053Z,29.26
2018-07-16T13:58:27.333Z,27.91
2018-07-16T14:00:54.628Z,28.54
2018-07-16T14:03:21.792Z,29.58
2018-07-16T14:05:49.093Z,28.79
2018-07-16T14:08:16.301Z,27.79
2018-07-16T14:10:43.598Z,27.90
2018-07-16T14:13:10.857Z,28.17
2018-07-16T14:15:38.167Z,27.43
2018-07-16T14:18:05.381Z,28.86
2018-07-16T14:20:32.628Z,28.51
2018-07-16T14:22:59.910Z,27.75
2018-07-16T14:25:27.184Z,26.73
2018-07-16T14:27:54.522Z,26.57
2018-07-16T14:30:21.796Z,26.78
2018-07-16T14:32:49.095Z,26.94
2018-07-16T14:35:16.338Z,28.60
2018-07-16T14:37:43.660Z,27.50
2018-07-16T14:40:10.982Z,26.80
2018-07-16T14:42:38.155Z,26.76
2018-07-16T14:45:05.583Z,27.66
2018-07-16T14:47:32.867Z,27.87
2018-07-16T14:50:00.096Z,27.74
2018-07-16T14:52:27.358Z,28.59
2018-07-16T14:54:54.658Z,28.15
2018-07-16T14:57:21.922Z,26.95
2018-07-16T14:59:49.250Z,28.03
2018-07-16T15:02:16.443Z,25.70
2018-07-16T15:04:43.870Z,26.98
2018-07-16T15:07:11.165Z,27.17
2018-07-16T15:09:38.460Z,27.38
2018-07-16T15:12:05.758Z,26.20
2018-07-16T15:14:33.094Z,27.29
2018-07-16T15:17:00.369Z,25.89
2018-07-16T15:19:30.728Z,27.80
2018-07-16T15:22:00.857Z,27.76
2018-07-16T15:24:28.088Z,27.94
2018-07-16T15:26:57.180Z,30.51
2018-07-16T15:29:24.364Z,31.08
2018-07-16T15:31:51.589Z,29.21
2018-07-16T15:34:18.859Z,28.56
2018-07-16T15:36:46.119Z,29.16
2018-07-16T15:39:13.424Z,28.73
2018-07-16T15:41:40.736Z,28.54
2018-07-16T15:44:07.918Z,29.37
2018-07-16T15:46:35.150Z,29.72
2018-07-16T15:49:02.445Z,29.34
2018-07-16T15:51:29.746Z,28.73
2018-07-16T15:53:57.023Z,28.36
2018-07-16T15:56:24.331Z,29.11
2018-07-16T15:58:51.580Z,28.67
2018-07-16T16:01:18.777Z,28.40
2018-07-16T16:03:46.081Z,27.81
2018-07-16T16:06:13.379Z,28.37
2018-07-16T16:08:40.693Z,28.58
2018-07-16T16:11:07.981Z,28.25
2018-07-16T16:13:35.255Z,29.12
2018-07-16T16:16:02.607Z,30.13
2018-07-16T16:18:29.829Z,29.45
2018-07-16T16:20:57.109Z,29.16
2018-07-16T16:23:24.416Z,28.56
2018-07-16T16:25:51.782Z,28.47
2018-07-16T16:28:19.003Z,29.48
2018-07-16T16:30:46.386Z,29.87
2018-07-16T16:33:13.650Z,29.07
2018-07-16T16:35:40.917Z,29.76
2018-07-16T16:38:08.256Z,28.88
2018-07-16T16:40:35.754Z,29.84
2018-07-16T16:43:03.125Z,28.98
2018-07-16T16:45:30.342Z,29.14
2018-07-16T16:47:57.721Z,30.63
2018-07-16T16:50:24.997Z,30.90
2018-07-16T16:52:52.376Z,30.80
2018-07-16T16:55:19.566Z,30.29
2018-07-16T16:57:46.867Z,31.58
2018-07-16T17:00:14.158Z,32.35
2018-07-16T17:02:41.449Z,32.21
2018-07-16T17:05:08.710Z,31.65
2018-07-16T17:07:35.974Z,31.62
2018-07-16T17:10:03.317Z,32.99
2018-07-16T17:12:30.534Z,32.08
2018-07-16T17:14:58.132Z,33.00
2018-07-16T17:17:25.408Z,33.54
2018-07-16T17:19:52.700Z,33.74
2018-07-16T17:22:19.992Z,34.13
2018-07-16T17:24:47.235Z,34.53
2018-07-16T17:27:14.529Z,34.85
2018-07-16T17:29:41.729Z,35.26
2018-07-16T17:32:08.983Z,34.99
2018-07-16T17:34:36.229Z,35.17
2018-07-16T17:37:03.697Z,35.61
2018-07-16T17:39:30.961Z,35.87
2018-07-16T17:41:58.273Z,35.41
2018-07-16T17:44:25.529Z,35.61
2018-07-16T17:46:52.797Z,35.96
2018-07-16T17:49:20.024Z,35.20
2018-07-16T17:51:47.211Z,35.79
2018-07-16T17:54:14.507Z,36.11
2018-07-16T17:56:41.743Z,35.41
2018-07-16T17:59:09.030Z,35.80
2018-07-16T18:01:36.347Z,35.86
2018-07-16T18:04:03.629Z,35.77
2018-07-16T18:06:30.948Z,36.50
2018-07-16T18:08:58.128Z,36.81
2018-07-16T18:11:25.392Z,36.52
2018-07-16T18:13:52.657Z,37.16
2018-07-16T18:16:19.884Z,37.80
2018-07-16T18:18:47.161Z,36.94
2018-07-16T18:21:14.433Z,38.00
2018-07-16T18:23:41.631Z,38.56
2018-07-16T18:26:08.843Z,38.03
2018-07-16T18:28:36.196Z,38.50
2018-07-16T18:31:03.377Z,38.24
2018-07-16T18:33:30.710Z,39.20
2018-07-16T18:35:57.964Z,39.27
2018-07-16T18:38:25.199Z,38.57
2018-07-16T18:40:52.534Z,39.90
2018-07-16T18:43:19.790Z,40.03
2018-07-16T18:45:47.127Z,40.99
2018-07-16T18:48:17.784Z,40.68
2018-07-16T18:50:45.130Z,41.70
2018-07-16T18:53:12.364Z,41.59
2018-07-16T18:55:39.625Z,41.88
2018-07-16T18:58:06.904Z,42.05
2018-07-16T19:00:34.165Z,42.26
2018-07-16T19:03:01.488Z,43.04
2018-07-16T19:05:28.748Z,42.95
2018-07-16T19:07:55.890Z,43.95
2018-07-16T19:10:23.197Z,44.21
2018-07-16T19:12:50.507Z,44.72
2018-07-16T19:15:26.803Z,44.40
2018-07-16T19:17:54.944Z,45.09
2018-07-16T19:20:22.198Z,44.64
2018-07-16T19:22:49.487Z,45.62
2018-07-16T19:25:16.747Z,44.92
2018-07-16T19:27:44.119Z,45.72
2018-07-16T19:30:11.404Z,45.09
2018-07-16T19:32:38.658Z,45.58
2018-07-16T19:35:05.941Z,45.85
2018-07-16T19:37:33.248Z,47.16
2018-07-16T19:40:00.463Z,46.89
2018-07-16T19:42:27.730Z,47.26
2018-07-16T19:44:55.035Z,47.99
2018-07-16T19:47:22.190Z,47.57
2018-07-16T19:49:49.545Z,47.80
2018-07-16T19:52:16.793Z,48.18
2018-07-16T19:54:44.064Z,48.10
2018-07-16T19:57:11.327Z,49.49
2018-07-16T19:59:38.659Z,48.95
2018-07-16T20:02:05.977Z,49.22
2018-07-16T20:04:33.230Z,49.64
2018-07-16T20:07:00.522Z,49.60
2018-07-16T20:09:27.990Z,49.24
2018-07-16T20:11:55.195Z,49.09
2018-07-16T20:14:23.068Z,49.06
2018-07-16T20:16:50.442Z,49.00
2018-07-16T20:19:17.784Z,49.85
2018-07-16T20:21:45.057Z,49.63
2018-07-16T20:24:12.292Z,50.27
2018-07-16T20:26:39.573Z,50.48
2018-07-16T20:29:07.163Z,50.55
2018-07-16T20:31:34.482Z,50.02
2018-07-16T20:34:01.716Z,50.73
2018-07-16T20:36:28.976Z,51.08
2018-07-16T20:38:56.426Z,50.99
2018-07-16T20:41:23.697Z,52.20
2018-07-16T20:43:51.033Z,52.51
2018-07-16T20:46:18.402Z,52.29
2018-07-16T20:48:45.656Z,54.16
2018-07-16T20:51:12.960Z,56.06
